createdAt,value
2017-09-16T00:02:23.662Z,10.40
2017-09-16T00:04:51.122Z,11.40
2017-09-16T00:07:18.648Z,10.20
2017-09-16T00:09:46.131Z,10.77
2017-09-16T00:12:13.607Z,10.50
2017-09-16T00:14:41.102Z,10.23
2017-09-16T00:17:08.587Z,10.20
2017-09-16T00:19:36.067Z,10.47
2017-09-16T00:22:04.436Z,10.60
2017-09-16T00:24:31.921Z,10.30
2017-09-16T00:27:00.190Z,11.80
2017-09-16T00:29:28.438Z,12.33
2017-09-16T00:31:55.905Z,9.83
2017-09-16T00:34:23.369Z,10.93
2017-09-16T00:36:50.845Z,10.87
2017-09-16T00:39:18.318Z,11.17
2017-09-16T00:41:46.678Z,11.50
2017-09-16T00:44:14.141Z,10.20
2017-09-16T00:46:41.610Z,10.77
2017-09-16T00:49:09.083Z,9.23
2017-09-16T00:51:36.650Z,10.00
2017-09-16T00:54:04.925Z,11.57
2017-09-16T00:56:32.405Z,9.83
2017-09-16T00:58:59.901Z,10.10
2017-09-16T01:01:27.433Z,9.93
2017-09-16T01:03:55.920Z,9.50
2017-09-16T01:06:23.547Z,10.00
2017-09-16T01:08:51.023Z,8.70
2017-09-16T01:11:18.488Z,9.50
2017-09-16T01:13:45.958Z,9.17
2017-09-16T01:16:13.426Z,8.07
2017-09-16T01:18:40.883Z,7.40
2017-09-16T01:21:08.361Z,7.80
2017-09-16T01:23:35.940Z,7.10
2017-09-16T01:26:03.525Z,7.50
2017-09-16T01:28:30.992Z,8.30
2017-09-16T01:30:58.482Z,7.30
2017-09-16T01:33:25.975Z,8.10
2017-09-16T01:35:53.596Z,7.13
2017-09-16T01:38:21.073Z,6.60
2017-09-16T01:40:48.582Z,6.20
2017-09-16T01:43:16.159Z,7.17
2017-09-16T01:45:43.629Z,7.73
2017-09-16T01:48:11.150Z,6.10
2017-09-16T01:50:38.625Z,6.10
2017-09-16T01:53:06.106Z,6.20
2017-09-16T01:55:33.579Z,6.23
2017-09-16T01:58:01.139Z,5.90
2017-09-16T02:00:28.615Z,5.70
2017-09-16T02:02:56.188Z,5.30
2017-09-16T02:05:24.442Z,5.03
2017-09-16T02:07:51.929Z,4.80
2017-09-16T02:10:19.499Z,5.07
2017-09-16T02:12:46.955Z,4.70
2017-09-16T02:15:14.422Z,5.53
2017-09-16T02:17:42.659Z,4.37
2017-09-16T02:20:10.114Z,4.80
2017-09-16T02:22:38.344Z,4.70
2017-09-16T02:25:05.813Z,4.07
2017-09-16T02:30:36.917Z,4.30
2017-09-16T02:33:04.489Z,3.57
2017-09-16T02:35:32.709Z,3.40
2017-09-16T02:38:00.227Z,3.80
2017-09-16T02:40:27.703Z,3.57
2017-09-16T02:42:55.284Z,3.57
2017-09-16T02:45:22.751Z,3.87
2017-09-16T02:47:50.221Z,4.77
2017-09-16T02:50:17.819Z,3.83
2017-09-16T02:52:45.290Z,4.60
2017-09-16T02:55:12.760Z,4.33
2017-09-16T02:57:40.394Z,4.87
2017-09-16T03:00:07.855Z,4.10
2017-09-16T03:02:35.344Z,4.37
2017-09-16T03:05:02.851Z,4.80
2017-09-16T03:07:30.330Z,5.00
2017-09-16T03:09:58.572Z,5.40
2017-09-16T03:12:26.049Z,5.17
2017-09-16T03:14:53.563Z,5.13
2017-09-16T03:17:21.070Z,5.00
2017-09-16T03:19:48.532Z,5.30
2017-09-16T03:22:16.007Z,4.53
2017-09-16T03:24:44.443Z,4.60
2017-09-16T03:27:11.991Z,5.03
2017-09-16T03:29:39.465Z,5.37
2017-09-16T03:32:07.694Z,5.20
2017-09-16T03:34:35.189Z,5.70
2017-09-16T03:37:02.671Z,5.00
2017-09-16T03:39:30.186Z,5.40
2017-09-16T03:41:57.674Z,5.57
2017-09-16T03:44:25.155Z,5.40
2017-09-16T03:46:53.418Z,5.70
2017-09-16T03:49:21.673Z,6.70
2017-09-16T03:51:50.019Z,6.50
2017-09-16T03:54:17.513Z,5.93
2017-09-16T03:56:44.987Z,5.03
2017-09-16T03:59:12.868Z,5.57
2017-09-16T04:01:52.719Z,5.20
2017-09-16T04:04:20.229Z,5.33
2017-09-16T04:06:47.706Z,5.63
2017-09-16T04:09:15.958Z,5.80
2017-09-16T04:11:44.167Z,5.50
2017-09-16T04:14:11.982Z,5.50
2017-09-16T04:16:40.259Z,5.50
2017-09-16T04:19:07.734Z,6.10
2017-09-16T04:21:35.242Z,4.93
2017-09-16T04:24:03.674Z,5.33
2017-09-16T04:26:31.161Z,5.30
2017-09-16T04:28:58.623Z,5.90
2017-09-16T04:31:26.225Z,5.40
2017-09-16T04:33:53.718Z,5.03
2017-09-16T04:36:21.202Z,4.63
2017-09-16T04:38:48.677Z,5.17
2017-09-16T04:41:16.281Z,5.00
2017-09-16T04:43:43.769Z,5.70
2017-09-16T04:46:11.219Z,5.60
2017-09-16T04:48:38.698Z,7.63
2017-09-16T04:51:06.160Z,5.30
2017-09-16T04:53:33.643Z,5.97
2017-09-16T04:56:01.112Z,4.87
2017-09-16T04:58:28.604Z,5.73
2017-09-16T05:00:56.072Z,6.10
2017-09-16T05:03:24.418Z,5.60
2017-09-16T05:05:51.908Z,5.60
2017-09-16T05:08:19.380Z,5.73
2017-09-16T05:10:46.868Z,5.37
2017-09-16T05:13:15.170Z,5.70
2017-09-16T05:15:43.222Z,5.50
2017-09-16T05:18:10.678Z,5.00
2017-09-16T05:20:38.218Z,5.90
2017-09-16T05:23:05.800Z,5.50
2017-09-16T05:25:33.267Z,4.87
2017-09-16T05:28:01.633Z,5.50
2017-09-16T05:30:29.874Z,4.40
2017-09-16T05:32:57.365Z,4.90
2017-09-16T05:35:24.860Z,5.70
2017-09-16T05:37:52.331Z,4.43
2017-09-16T05:40:20.622Z,4.10
2017-09-16T05:42:48.208Z,4.67
2017-09-16T05:45:15.669Z,4.77
2017-09-16T05:47:43.927Z,4.93
2017-09-16T05:50:12.991Z,5.03
2017-09-16T05:52:40.495Z,5.20
2017-09-16T05:55:07.971Z,4.20
2017-09-16T05:57:35.443Z,4.37
2017-09-16T06:00:03.020Z,4.50
2017-09-16T06:02:30.495Z,4.57
2017-09-16T06:04:58.721Z,4.80
2017-09-16T06:07:26.196Z,4.77
2017-09-16T06:09:53.825Z,3.83
2017-09-16T06:12:22.826Z,4.53
2017-09-16T06:14:50.287Z,3.80
2017-09-16T06:17:18.519Z,4.53
2017-09-16T06:19:46.066Z,4.30
2017-09-16T06:22:14.258Z,4.47
2017-09-16T06:24:41.834Z,5.33
2017-09-16T06:27:09.358Z,4.07
2017-09-16T06:29:36.927Z,5.80
2017-09-16T06:32:05.146Z,4.07
2017-09-16T06:34:33.413Z,4.90
2017-09-16T06:37:01.655Z,5.43
2017-09-16T06:39:29.106Z,5.83
2017-09-16T06:41:56.653Z,6.07
2017-09-16T06:44:24.126Z,4.83
2017-09-16T06:46:51.604Z,6.30
2017-09-16T06:49:19.086Z,4.70
2017-09-16T06:51:46.549Z,5.57
2017-09-16T06:54:14.923Z,5.80
2017-09-16T06:56:43.022Z,5.90
2017-09-16T06:59:10.483Z,5.60
2017-09-16T07:01:37.955Z,5.90
2017-09-16T07:04:06.205Z,5.03
2017-09-16T07:06:34.483Z,5.33
2017-09-16T07:09:02.759Z,5.40
2017-09-16T07:11:30.995Z,4.80
2017-09-16T07:13:58.611Z,5.67
2017-09-16T07:16:26.116Z,4.83
2017-09-16T07:18:53.668Z,4.83
2017-09-16T07:21:21.403Z,4.83
2017-09-16T07:23:48.879Z,5.17
2017-09-16T07:26:16.546Z,5.17
2017-09-16T07:28:44.087Z,5.30
2017-09-16T07:31:11.563Z,5.10
2017-09-16T07:33:39.122Z,4.57
2017-09-16T07:36:06.611Z,7.80
2017-09-16T07:38:34.110Z,5.43
2017-09-16T07:41:01.623Z,5.63
2017-09-16T07:43:29.146Z,4.80
2017-09-16T07:45:56.660Z,4.03
2017-09-16T07:48:24.170Z,5.70
2017-09-16T07:50:51.671Z,4.93
2017-09-16T07:53:19.148Z,4.67
2017-09-16T07:55:48.154Z,6.00
2017-09-16T07:58:15.935Z,6.63
2017-09-16T08:00:44.275Z,4.83
2017-09-16T08:03:11.831Z,5.40
2017-09-16T08:05:40.229Z,4.50
2017-09-16T08:08:08.513Z,4.47
2017-09-16T08:10:36.028Z,5.23
2017-09-16T08:13:04.287Z,7.00
2017-09-16T08:15:31.744Z,4.53
2017-09-16T08:17:59.265Z,3.63
2017-09-16T08:20:26.758Z,4.70
2017-09-16T08:22:54.254Z,4.80
2017-09-16T08:25:21.769Z,3.90
2017-09-16T08:27:49.249Z,4.20
2017-09-16T08:30:16.977Z,4.40
2017-09-16T08:32:44.476Z,4.10
2017-09-16T08:35:11.975Z,4.50
2017-09-16T08:37:40.239Z,4.17
2017-09-16T08:40:08.664Z,4.40
2017-09-16T08:42:36.178Z,3.60
2017-09-16T08:45:03.751Z,4.23
2017-09-16T08:47:31.261Z,5.20
2017-09-16T08:49:58.740Z,4.30
2017-09-16T08:52:27.007Z,4.40
2017-09-16T08:54:54.495Z,4.10
2017-09-16T08:57:22.178Z,3.23
2017-09-16T08:59:50.419Z,3.23
2017-09-16T09:02:18.672Z,3.00
2017-09-16T09:04:47.896Z,3.30
2017-09-16T09:07:15.379Z,3.40
2017-09-16T09:09:42.882Z,4.10
2017-09-16T09:12:10.565Z,3.90
2017-09-16T09:14:38.080Z,3.60
2017-09-16T09:17:05.570Z,3.23
2017-09-16T09:19:33.063Z,3.60
2017-09-16T09:22:00.556Z,3.73
2017-09-16T09:24:28.302Z,3.70
2017-09-16T09:26:56.557Z,2.70
2017-09-16T09:29:24.139Z,4.00
2017-09-16T09:31:51.637Z,3.57
2017-09-16T09:34:19.117Z,5.10
2017-09-16T09:36:47.433Z,4.00
2017-09-16T09:39:14.941Z,4.00
2017-09-16T09:41:42.691Z,3.73
2017-09-16T09:44:10.195Z,2.73
2017-09-16T09:46:38.483Z,5.10
2017-09-16T09:49:05.985Z,2.90
2017-09-16T09:51:33.505Z,3.97
2017-09-16T09:54:01.885Z,3.77
2017-09-16T09:56:29.374Z,4.20
2017-09-16T09:58:56.927Z,4.50
2017-09-16T10:01:24.415Z,3.30
2017-09-16T10:03:51.911Z,2.70
2017-09-16T10:06:20.171Z,3.00
2017-09-16T10:08:47.662Z,3.70
2017-09-16T10:11:15.162Z,3.40
2017-09-16T10:13:42.762Z,3.50
2017-09-16T10:16:10.279Z,4.00
2017-09-16T10:18:38.138Z,3.37
2017-09-16T10:21:05.642Z,3.80
2017-09-16T10:23:33.123Z,3.93
2017-09-16T10:26:00.642Z,3.67
2017-09-16T10:28:28.240Z,3.70
2017-09-16T10:30:55.717Z,2.67
2017-09-16T10:33:23.469Z,3.10
2017-09-16T10:35:50.976Z,4.27
2017-09-16T10:38:18.462Z,3.50
2017-09-16T10:40:45.977Z,4.83
2017-09-16T10:43:14.268Z,5.47
2017-09-16T10:45:41.909Z,3.53
2017-09-16T10:48:09.427Z,4.43
2017-09-16T10:50:37.082Z,3.77
2017-09-16T10:53:04.581Z,3.70
2017-09-16T10:55:32.130Z,5.00
2017-09-16T10:57:59.599Z,4.10
2017-09-16T11:00:27.128Z,3.57
2017-09-16T11:02:54.637Z,3.80
2017-09-16T11:05:22.128Z,4.20
2017-09-16T11:07:49.631Z,4.03
2017-09-16T11:10:17.225Z,4.03
2017-09-16T11:12:44.728Z,3.33
2017-09-16T11:17:51.352Z,4.03
2017-09-16T11:20:19.610Z,7.97
2017-09-16T11:22:47.135Z,4.27
2017-09-16T11:25:14.613Z,18.87
2017-09-16T11:27:42.098Z,4.30
2017-09-16T11:30:10.378Z,3.50
2017-09-16T11:32:38.712Z,3.20
2017-09-16T11:35:06.973Z,2.50
2017-09-16T11:37:34.518Z,2.60
2017-09-16T11:40:02.145Z,3.30
2017-09-16T11:42:29.630Z,2.70
2017-09-16T11:44:57.120Z,3.67
2017-09-16T11:47:24.640Z,2.50
2017-09-16T11:49:52.166Z,1.83
2017-09-16T11:52:19.690Z,2.83
2017-09-16T11:54:47.181Z,2.37
2017-09-16T11:57:14.731Z,2.80
2017-09-16T11:59:42.385Z,3.03
2017-09-16T12:02:09.880Z,1.80
2017-09-16T12:04:38.314Z,2.53
2017-09-16T12:07:05.801Z,2.17
2017-09-16T12:09:33.282Z,2.40
2017-09-16T12:12:00.827Z,1.60
2017-09-16T12:14:28.409Z,1.90
2017-09-16T12:16:55.910Z,2.17
2017-09-16T12:19:23.395Z,2.07
2017-09-16T12:21:50.886Z,1.90
2017-09-16T12:24:18.401Z,2.70
2017-09-16T12:26:45.892Z,2.27
2017-09-16T12:29:13.491Z,2.13
2017-09-16T12:31:41.063Z,2.67
2017-09-16T12:34:08.672Z,2.30
2017-09-16T12:36:36.146Z,2.80
2017-09-16T12:39:03.590Z,2.00
2017-09-16T12:41:31.102Z,2.83
2017-09-16T12:43:58.585Z,1.90
2017-09-16T12:46:26.196Z,2.23
2017-09-16T12:48:53.752Z,6.40
2017-09-16T12:51:23.029Z,3.03
2017-09-16T12:53:50.539Z,2.70
2017-09-16T12:56:18.816Z,2.43
2017-09-16T12:58:46.302Z,2.60
2017-09-16T13:01:14.720Z,3.00
2017-09-16T13:03:44.101Z,5.60
2017-09-16T13:06:11.572Z,2.97
2017-09-16T13:08:39.924Z,3.80
2017-09-16T13:11:07.428Z,2.57
2017-09-16T13:13:35.692Z,2.33
2017-09-16T13:16:03.199Z,1.93
2017-09-16T13:18:30.678Z,2.20
2017-09-16T13:20:58.247Z,2.37
2017-09-16T13:23:25.744Z,2.83
2017-09-16T13:25:53.311Z,2.77
2017-09-16T13:28:20.813Z,2.13
2017-09-16T13:30:48.274Z,2.33
2017-09-16T13:33:16.525Z,3.07
2017-09-16T13:35:45.568Z,3.10
2017-09-16T13:38:13.051Z,3.20
2017-09-16T13:40:40.531Z,2.73
2017-09-16T13:43:08.010Z,2.90
2017-09-16T13:45:35.534Z,2.43
2017-09-16T13:48:03.019Z,2.23
2017-09-16T13:50:30.508Z,3.60
2017-09-16T13:52:58.932Z,2.40
2017-09-16T13:55:26.639Z,2.63
2017-09-16T13:57:54.172Z,3.53
2017-09-16T14:00:21.703Z,2.30
2017-09-16T14:02:49.190Z,2.10
2017-09-16T14:05:16.671Z,2.20
2017-09-16T14:07:44.338Z,1.90
2017-09-16T14:10:11.814Z,2.30
2017-09-16T14:12:39.369Z,1.53
2017-09-16T14:15:06.951Z,2.20
2017-09-16T14:17:34.465Z,1.60
2017-09-16T14:20:02.007Z,1.83
2017-09-16T14:22:30.289Z,2.07
2017-09-16T14:24:57.747Z,2.17
2017-09-16T14:27:25.331Z,3.00
2017-09-16T14:29:52.897Z,2.10
2017-09-16T14:32:21.156Z,2.03
2017-09-16T14:34:49.408Z,2.50
2017-09-16T14:37:17.136Z,2.50
2017-09-16T14:39:44.648Z,2.80
2017-09-16T14:42:15.938Z,2.23
2017-09-16T14:44:43.394Z,2.57
2017-09-16T14:47:11.655Z,1.90
2017-09-16T14:49:39.119Z,2.00
2017-09-16T14:52:06.709Z,1.83
2017-09-16T14:54:34.186Z,2.33
2017-09-16T14:57:02.436Z,2.20
2017-09-16T14:59:29.919Z,2.03
2017-09-16T15:01:57.379Z,2.57
2017-09-16T15:04:24.925Z,2.27
2017-09-16T15:06:52.465Z,2.13
2017-09-16T15:09:20.014Z,2.53
2017-09-16T15:11:47.805Z,2.80
2017-09-16T15:14:15.297Z,2.77
2017-09-16T15:16:42.914Z,2.33
2017-09-16T15:19:11.180Z,3.20
2017-09-16T15:21:38.719Z,3.10
2017-09-16T15:24:06.976Z,2.87
2017-09-16T15:26:34.429Z,2.77
2017-09-16T15:29:02.074Z,3.10
2017-09-16T15:31:29.599Z,2.87
2017-09-16T15:33:57.875Z,2.90
2017-09-16T15:36:25.353Z,3.20
2017-09-16T15:38:52.868Z,3.00
2017-09-16T15:41:20.355Z,3.40
2017-09-16T15:43:47.843Z,2.80
2017-09-16T15:46:15.322Z,3.10
2017-09-16T15:48:43.404Z,3.20
2017-09-16T15:51:10.885Z,3.50
2017-09-16T15:53:39.176Z,2.47
2017-09-16T15:56:07.494Z,2.70
2017-09-16T15:58:35.037Z,2.83
2017-09-16T16:01:02.522Z,3.07
2017-09-16T16:03:29.987Z,2.13
2017-09-16T16:05:57.566Z,1.50
2017-09-16T16:08:25.031Z,2.00
2017-09-16T16:10:52.517Z,2.17
2017-09-16T16:13:20.007Z,1.80
2017-09-16T16:15:47.483Z,1.77
2017-09-16T16:18:14.960Z,1.20
2017-09-16T16:20:42.457Z,1.40
2017-09-16T16:23:09.926Z,1.47
2017-09-16T16:25:37.439Z,2.10
2017-09-16T16:28:06.473Z,2.10
2017-09-16T16:30:33.964Z,1.60
2017-09-16T16:33:01.496Z,1.37
2017-09-16T16:35:28.988Z,1.83
2017-09-16T16:37:56.708Z,1.70
2017-09-16T16:40:24.951Z,2.07
2017-09-16T16:42:52.422Z,2.20
2017-09-16T16:45:19.922Z,2.33
2017-09-16T16:47:47.392Z,2.20
2017-09-16T16:50:14.889Z,2.60
2017-09-16T16:52:42.366Z,2.43
2017-09-16T16:55:09.854Z,2.23
2017-09-16T16:57:38.495Z,2.13
2017-09-16T17:00:06.041Z,2.57
2017-09-16T17:02:33.532Z,2.07
2017-09-16T17:05:01.132Z,1.90
2017-09-16T17:07:28.607Z,2.00
2017-09-16T17:09:56.088Z,2.10
2017-09-16T17:12:23.705Z,2.40
2017-09-16T17:14:51.183Z,1.97
2017-09-16T17:17:18.714Z,2.70
2017-09-16T17:19:46.341Z,2.40
2017-09-16T17:22:13.799Z,2.50
2017-09-16T17:24:41.393Z,2.77
2017-09-16T17:27:09.778Z,3.17
2017-09-16T17:29:37.319Z,2.60
2017-09-16T17:32:04.892Z,2.90
2017-09-16T17:34:32.391Z,3.37
2017-09-16T17:36:59.898Z,2.80
2017-09-16T17:39:27.444Z,2.60
2017-09-16T17:41:55.026Z,2.73
2017-09-16T17:44:22.523Z,3.57
2017-09-16T17:46:50.000Z,2.90
2017-09-16T17:49:17.504Z,3.10
2017-09-16T17:51:45.124Z,4.37
2017-09-16T17:54:12.629Z,2.90
2017-09-16T17:56:41.064Z,3.10
2017-09-16T17:59:08.542Z,3.57
2017-09-16T18:01:36.015Z,3.27
2017-09-16T18:04:03.496Z,3.70
2017-09-16T18:06:30.984Z,4.87
2017-09-16T18:08:58.468Z,2.97
2017-09-16T18:11:26.028Z,4.33
2017-09-16T18:13:54.427Z,5.27
2017-09-16T18:16:22.822Z,4.30
2017-09-16T18:18:50.322Z,4.40
2017-09-16T18:21:18.602Z,3.77
2017-09-16T18:23:46.106Z,4.10
2017-09-16T18:26:14.659Z,3.20
2017-09-16T18:28:42.285Z,3.10
2017-09-16T18:31:09.767Z,3.47
2017-09-16T18:33:37.223Z,3.23
2017-09-16T18:36:04.852Z,3.00
2017-09-16T18:38:32.331Z,4.23
2017-09-16T18:40:59.820Z,2.70
2017-09-16T18:43:28.215Z,3.77
2017-09-16T18:45:55.715Z,3.83
2017-09-16T18:48:23.181Z,4.40
2017-09-16T18:50:50.688Z,5.17
2017-09-16T18:53:18.162Z,5.50
2017-09-16T18:55:45.659Z,5.37
2017-09-16T18:58:13.165Z,5.13
2017-09-16T19:00:40.663Z,4.10
2017-09-16T19:03:08.221Z,4.63
2017-09-16T19:05:35.689Z,4.87
2017-09-16T19:08:03.421Z,5.40
2017-09-16T19:10:30.919Z,5.27
2017-09-16T19:12:58.404Z,4.83
2017-09-16T19:15:26.570Z,4.60
2017-09-16T19:17:55.005Z,5.60
2017-09-16T19:20:22.509Z,5.30
2017-09-16T19:22:50.023Z,5.70
2017-09-16T19:25:17.510Z,4.83
2017-09-16T19:27:44.993Z,5.40
2017-09-16T19:30:12.524Z,6.37
2017-09-16T19:32:40.168Z,6.10
2017-09-16T19:35:07.678Z,7.00
2017-09-16T19:37:36.131Z,5.73
2017-09-16T19:40:03.653Z,5.23
2017-09-16T19:42:32.522Z,6.90
2017-09-16T19:45:00.536Z,6.37
2017-09-16T19:47:28.028Z,5.20
2017-09-16T19:49:56.428Z,5.30
2017-09-16T19:52:23.901Z,6.27
2017-09-16T19:54:51.402Z,5.77
2017-09-16T19:57:18.869Z,5.10
2017-09-16T19:59:46.342Z,5.43
2017-09-16T20:02:13.828Z,6.40
2017-09-16T20:04:41.313Z,5.30
2017-09-16T20:07:08.812Z,6.27
2017-09-16T20:09:36.411Z,6.30
2017-09-16T20:12:03.888Z,5.50
2017-09-16T20:14:31.396Z,6.17
2017-09-16T20:16:58.898Z,5.17
2017-09-16T20:19:26.424Z,4.90
2017-09-16T20:21:54.143Z,4.60
2017-09-16T20:24:21.775Z,4.37
2017-09-16T20:26:49.324Z,5.10
2017-09-16T20:29:16.805Z,4.53
2017-09-16T20:31:44.339Z,4.60
2017-09-16T20:34:11.802Z,4.50
2017-09-16T20:36:40.073Z,5.40
2017-09-16T20:39:08.515Z,5.97
2017-09-16T20:41:35.986Z,5.43
2017-09-16T20:44:03.575Z,6.10
2017-09-16T20:46:31.077Z,6.43
2017-09-16T20:48:58.571Z,6.50
2017-09-16T20:51:26.950Z,6.07
2017-09-16T20:53:55.197Z,5.70
2017-09-16T20:56:22.807Z,6.30
2017-09-16T20:58:51.041Z,7.40
2017-09-16T21:01:18.516Z,6.50
2017-09-16T21:03:46.176Z,6.77
2017-09-16T21:06:13.671Z,7.40
2017-09-16T21:08:41.965Z,7.43
2017-09-16T21:11:09.467Z,6.50
2017-09-16T21:13:37.729Z,7.33
2017-09-16T21:16:05.294Z,8.23
2017-09-16T21:18:32.787Z,7.77
2017-09-16T21:21:00.259Z,7.60
2017-09-16T21:23:27.745Z,8.10
2017-09-16T21:25:55.261Z,8.60
2017-09-16T21:28:22.743Z,9.30
2017-09-16T21:30:50.348Z,9.10
2017-09-16T21:33:17.829Z,7.53
2017-09-16T21:35:45.312Z,7.57
2017-09-16T21:38:12.837Z,8.47
2017-09-16T21:40:40.316Z,9.03
2017-09-16T21:43:07.864Z,8.33
2017-09-16T21:45:35.465Z,8.43
2017-09-16T21:48:02.930Z,8.57
2017-09-16T21:50:31.184Z,8.73
2017-09-16T21:52:58.693Z,8.97
2017-09-16T21:55:26.278Z,10.90
2017-09-16T21:57:53.847Z,10.10
2017-09-16T22:00:26.429Z,12.50
2017-09-16T22:02:54.854Z,12.20
2017-09-16T22:05:22.359Z,12.70
2017-09-16T22:07:49.844Z,12.37
2017-09-16T22:10:17.451Z,12.93
2017-09-16T22:12:44.918Z,12.90
2017-09-16T22:15:12.428Z,13.30
2017-09-16T22:17:40.260Z,13.80
2017-09-16T22:20:07.737Z,14.40
2017-09-16T22:22:35.244Z,14.40
2017-09-16T22:25:02.721Z,14.60
2017-09-16T22:27:30.212Z,14.70
2017-09-16T22:29:57.724Z,15.33
2017-09-16T22:32:25.237Z,15.97
2017-09-16T22:34:52.776Z,16.83
2017-09-16T22:37:20.251Z,17.20
2017-09-16T22:39:47.731Z,17.40
2017-09-16T22:42:15.324Z,17.13
2017-09-16T22:44:42.835Z,17.07
2017-09-16T22:47:10.301Z,17.30
2017-09-16T22:49:37.820Z,17.73
2017-09-16T22:52:06.066Z,18.80
2017-09-16T22:54:33.660Z,18.10
2017-09-16T22:57:01.118Z,18.67
2017-09-16T22:59:28.623Z,18.60
2017-09-16T23:01:56.883Z,16.90
2017-09-16T23:04:24.401Z,19.13
2017-09-16T23:06:52.873Z,17.10
2017-09-16T23:09:20.369Z,19.20
2017-09-16T23:11:47.842Z,18.83
2017-09-16T23:14:15.481Z,20.17
2017-09-16T23:16:42.964Z,20.23
2017-09-16T23:19:11.480Z,20.70
2017-09-16T23:21:40.062Z,22.70
2017-09-16T23:24:07.543Z,22.17
2017-09-16T23:26:35.040Z,24.40
2017-09-16T23:29:02.624Z,23.00
2017-09-16T23:31:30.089Z,24.80
2017-09-16T23:33:57.625Z,23.77
2017-09-16T23:36:25.146Z,23.60
2017-09-16T23:38:52.639Z,25.20
2017-09-16T23:41:20.122Z,24.60
2017-09-16T23:43:47.600Z,23.53
2017-09-16T23:46:15.265Z,23.80
2017-09-16T23:48:44.330Z,23.50
2017-09-16T23:51:11.799Z,23.23
2017-09-16T23:53:39.314Z,21.90
2017-09-16T23:56:06.778Z,21.10
2017-09-16T23:58:34.249Z,21.80
